sensor_id;sensor_type;location;lat;lon;timestamp;pressure;altitude;pressure_sealevel;temperature;humidity
55550;BME280;41397;49.972;18.944;2023-12-28T00:02:36;102149.62;;;7.30;60.52
55550;BME280;41397;49.972;18.944;2023-12-28T00:05:37;102150.34;;;7.33;60.48
55550;BME280;41397;49.972;18.944;2023-12-28T00:08:42;102146.84;;;7.31;60.52
55550;BME280;41397;49.972;18.944;2023-12-28T00:11:44;102134.45;;;7.24;60.84
55550;BME280;41397;49.972;18.944;2023-12-28T00:14:45;102138.88;;;7.27;60.50
55550;BME280;41397;49.972;18.944;2023-12-28T00:17:46;102153.45;;;7.26;60.75
55550;BME280;41397;49.972;18.944;2023-12-28T00:20:51;102150.63;;;7.27;60.55
55550;BME280;41397;49.972;18.944;2023-12-28T00:23:57;102133.77;;;7.19;60.50
55550;BME280;41397;49.972;18.944;2023-12-28T00:27:04;102131.21;;;7.16;60.63
55550;BME280;41397;49.972;18.944;2023-12-28T00:30:06;102138.34;;;7.19;60.75
55550;BME280;41397;49.972;18.944;2023-12-28T00:33:07;102123.72;;;7.21;60.76
55550;BME280;41397;49.972;18.944;2023-12-28T00:36:09;102112.63;;;7.26;60.78
55550;BME280;41397;49.972;18.944;2023-12-28T00:39:10;102106.43;;;7.22;60.74
55550;BME280;41397;49.972;18.944;2023-12-28T00:42:11;102102.91;;;7.20;60.73
55550;BME280;41397;49.972;18.944;2023-12-28T00:45:13;102110.17;;;7.20;60.76
55550;BME280;41397;49.972;18.944;2023-12-28T00:48:14;102109.14;;;7.22;60.71
55550;BME280;41397;49.972;18.944;2023-12-28T00:51:15;102100.26;;;7.19;60.86
55550;BME280;41397;49.972;18.944;2023-12-28T00:54:17;102092.39;;;7.13;60.57
55550;BME280;41397;49.972;18.944;2023-12-28T00:57:18;102098.17;;;7.05;61.01
55550;BME280;41397;49.972;18.944;2023-12-28T01:00:19;102107.36;;;7.02;61.04
55550;BME280;41397;49.972;18.944;2023-12-28T01:03:20;102100.71;;;6.89;61.38
55550;BME280;41397;49.972;18.944;2023-12-28T01:06:22;102108.33;;;6.81;61.86
55550;BME280;41397;49.972;18.944;2023-12-28T01:09:28;102110.37;;;6.76;61.83
55550;BME280;41397;49.972;18.944;2023-12-28T01:12:29;102101.33;;;6.75;62.29
55550;BME280;41397;49.972;18.944;2023-12-28T01:15:30;102094.93;;;6.76;61.98
55550;BME280;41397;49.972;18.944;2023-12-28T01:18:32;102098.48;;;6.78;62.02
55550;BME280;41397;49.972;18.944;2023-12-28T01:21:33;102107.45;;;6.80;61.89
55550;BME280;41397;49.972;18.944;2023-12-28T01:24:34;102096.63;;;6.79;61.90
55550;BME280;41397;49.972;18.944;2023-12-28T01:27:35;102099.29;;;6.80;61.97
55550;BME280;41397;49.972;18.944;2023-12-28T01:30:37;102093.71;;;6.83;62.05
55550;BME280;41397;49.972;18.944;2023-12-28T01:33:41;102097.25;;;6.85;61.72
55550;BME280;41397;49.972;18.944;2023-12-28T01:36:42;102083.56;;;6.87;61.87
55550;BME280;41397;49.972;18.944;2023-12-28T01:39:45;102085.41;;;6.86;61.75
55550;BME280;41397;49.972;18.944;2023-12-28T01:42:46;102070.12;;;6.84;61.92
55550;BME280;41397;49.972;18.944;2023-12-28T01:45:49;102070.21;;;6.82;61.84
55550;BME280;41397;49.972;18.944;2023-12-28T01:48:51;102086.44;;;6.84;61.62
55550;BME280;41397;49.972;18.944;2023-12-28T01:51:52;102072.02;;;6.82;62.02
55550;BME280;41397;49.972;18.944;2023-12-28T01:54:55;102061.23;;;6.80;61.91
55550;BME280;41397;49.972;18.944;2023-12-28T01:57:58;102071.14;;;6.81;61.90
55550;BME280;41397;49.972;18.944;2023-12-28T02:00:59;102062.05;;;6.82;61.98
55550;BME280;41397;49.972;18.944;2023-12-28T02:04:01;102048.65;;;6.78;62.08
55550;BME280;41397;49.972;18.944;2023-12-28T02:07:04;102040.65;;;6.75;62.21
55550;BME280;41397;49.972;18.944;2023-12-28T02:10:07;102041.52;;;6.75;62.17
55550;BME280;41397;49.972;18.944;2023-12-28T02:13:08;102036.13;;;6.74;62.21
55550;BME280;41397;49.972;18.944;2023-12-28T02:16:13;102044.66;;;6.66;62.36
55550;BME280;41397;49.972;18.944;2023-12-28T02:22:31;102042.10;;;6.63;62.36
55550;BME280;41397;49.972;18.944;2023-12-28T02:25:33;102042.98;;;6.63;62.44
55550;BME280;41397;49.972;18.944;2023-12-28T02:28:34;102036.56;;;6.64;62.54
55550;BME280;41397;49.972;18.944;2023-12-28T02:31:43;102033.71;;;6.67;62.42
55550;BME280;41397;49.972;18.944;2023-12-28T02:34:48;102026.38;;;6.70;62.28
55550;BME280;41397;49.972;18.944;2023-12-28T02:37:56;102026.31;;;6.71;62.11
55550;BME280;41397;49.972;18.944;2023-12-28T02:41:00;102021.96;;;6.67;62.22
55550;BME280;41397;49.972;18.944;2023-12-28T02:44:03;102021.90;;;6.69;62.05
55550;BME280;41397;49.972;18.944;2023-12-28T02:47:04;102014.09;;;6.61;62.00
55550;BME280;41397;49.972;18.944;2023-12-28T02:50:06;102018.85;;;6.56;62.07
55550;BME280;41397;49.972;18.944;2023-12-28T02:53:09;102020.61;;;6.57;62.10
55550;BME280;41397;49.972;18.944;2023-12-28T02:56:10;102005.26;;;6.56;62.10
55550;BME280;41397;49.972;18.944;2023-12-28T02:59:11;101999.97;;;6.53;62.03
55550;BME280;41397;49.972;18.944;2023-12-28T03:02:12;101994.73;;;6.48;61.96
55550;BME280;41397;49.972;18.944;2023-12-28T03:05:16;102000.90;;;6.52;61.95
55550;BME280;41397;49.972;18.944;2023-12-28T03:08:18;101999.15;;;6.51;62.05
55550;BME280;41397;49.972;18.944;2023-12-28T03:11:20;101985.55;;;6.51;62.06
55550;BME280;41397;49.972;18.944;2023-12-28T03:14:21;101978.38;;;6.50;62.36
55550;BME280;41397;49.972;18.944;2023-12-28T03:17:25;101977.75;;;6.43;62.45
55550;BME280;41397;49.972;18.944;2023-12-28T03:20:26;101972.55;;;6.38;62.85
55550;BME280;41397;49.972;18.944;2023-12-28T03:23:27;101975.27;;;6.38;63.00
55550;BME280;41397;49.972;18.944;2023-12-28T03:26:28;101975.18;;;6.40;62.74
55550;BME280;41397;49.972;18.944;2023-12-28T03:29:33;101968.77;;;6.41;62.86
55550;BME280;41397;49.972;18.944;2023-12-28T03:32:35;101957.71;;;6.45;62.74
55550;BME280;41397;49.972;18.944;2023-12-28T03:35:36;101964.11;;;6.44;62.83
55550;BME280;41397;49.972;18.944;2023-12-28T03:38:38;101952.37;;;6.44;62.54
55550;BME280;41397;49.972;18.944;2023-12-28T03:41:41;101959.61;;;6.43;62.60
55550;BME280;41397;49.972;18.944;2023-12-28T03:44:42;101954.93;;;6.47;62.46
55550;BME280;41397;49.972;18.944;2023-12-28T03:47:44;101957.03;;;6.40;62.62
55550;BME280;41397;49.972;18.944;2023-12-28T03:50:45;101969.16;;;6.33;63.04
55550;BME280;41397;49.972;18.944;2023-12-28T03:53:49;101959.36;;;6.29;63.00
55550;BME280;41397;49.972;18.944;2023-12-28T03:56:51;101976.39;;;6.33;62.96
55550;BME280;41397;49.972;18.944;2023-12-28T03:59:52;101967.45;;;6.31;63.04
55550;BME280;41397;49.972;18.944;2023-12-28T04:02:54;101977.55;;;6.27;63.03
55550;BME280;41397;49.972;18.944;2023-12-28T04:06:00;101963.97;;;6.27;63.05
55550;BME280;41397;49.972;18.944;2023-12-28T04:09:01;101961.15;;;6.30;62.96
55550;BME280;41397;49.972;18.944;2023-12-28T04:12:03;101968.67;;;6.23;63.18
55550;BME280;41397;49.972;18.944;2023-12-28T04:15:05;101970.84;;;6.15;63.25
55550;BME280;41397;49.972;18.944;2023-12-28T04:18:06;101993.13;;;6.03;63.58
55550;BME280;41397;49.972;18.944;2023-12-28T04:21:09;102005.30;;;5.93;63.74
55550;BME280;41397;49.972;18.944;2023-12-28T04:24:10;102001.95;;;5.86;64.31
55550;BME280;41397;49.972;18.944;2023-12-28T04:27:12;102003.51;;;5.92;64.25
55550;BME280;41397;49.972;18.944;2023-12-28T04:30:15;102003.49;;;5.93;64.20
55550;BME280;41397;49.972;18.944;2023-12-28T04:33:17;102006.07;;;5.96;64.37
55550;BME280;41397;49.972;18.944;2023-12-28T04:36:21;102005.93;;;5.99;63.73
55550;BME280;41397;49.972;18.944;2023-12-28T04:39:23;101997.59;;;6.04;64.33
55550;BME280;41397;49.972;18.944;2023-12-28T04:42:24;101992.91;;;6.08;64.36
55550;BME280;41397;49.972;18.944;2023-12-28T04:45:25;102003.63;;;6.11;64.67
55550;BME280;41397;49.972;18.944;2023-12-28T04:48:28;102008.33;;;6.07;64.77
55550;BME280;41397;49.972;18.944;2023-12-28T04:51:29;102014.45;;;6.12;65.22
55550;BME280;41397;49.972;18.944;2023-12-28T04:54:31;102031.75;;;6.10;65.56
55550;BME280;41397;49.972;18.944;2023-12-28T04:57:33;102027.28;;;6.09;65.89
55550;BME280;41397;49.972;18.944;2023-12-28T05:00:35;102020.48;;;6.19;66.37
55550;BME280;41397;49.972;18.944;2023-12-28T05:03:36;102024.84;;;6.23;66.86
55550;BME280;41397;49.972;18.944;2023-12-28T05:06:39;102022.81;;;6.28;66.81
55550;BME280;41397;49.972;18.944;2023-12-28T05:09:40;102024.38;;;6.34;66.57
55550;BME280;41397;49.972;18.944;2023-12-28T05:12:42;102030.54;;;6.37;66.65
55550;BME280;41397;49.972;18.944;2023-12-28T05:15:43;102032.19;;;6.41;67.70
55550;BME280;41397;49.972;18.944;2023-12-28T05:18:47;102029.24;;;6.46;68.62
55550;BME280;41397;49.972;18.944;2023-12-28T05:21:49;102016.95;;;6.58;67.97
55550;BME280;41397;49.972;18.944;2023-12-28T05:24:50;102012.98;;;6.65;68.14
55550;BME280;41397;49.972;18.944;2023-12-28T05:27:51;102028.89;;;6.74;68.40
55550;BME280;41397;49.972;18.944;2023-12-28T05:30:56;102029.48;;;6.81;68.67
55550;BME280;41397;49.972;18.944;2023-12-28T05:33:59;102023.90;;;6.84;68.88
55550;BME280;41397;49.972;18.944;2023-12-28T05:37:01;102028.16;;;6.89;69.23
55550;BME280;41397;49.972;18.944;2023-12-28T05:40:02;102024.50;;;6.91;69.60
55550;BME280;41397;49.972;18.944;2023-12-28T05:43:04;102019.85;;;6.93;70.02
55550;BME280;41397;49.972;18.944;2023-12-28T05:46:05;102031.34;;;6.99;70.06
55550;BME280;41397;49.972;18.944;2023-12-28T05:49:06;102032.07;;;7.03;69.66
55550;BME280;41397;49.972;18.944;2023-12-28T05:52:07;102025.76;;;7.02;70.56
55550;BME280;41397;49.972;18.944;2023-12-28T05:55:12;102023.24;;;6.98;70.74
55550;BME280;41397;49.972;18.944;2023-12-28T05:58:13;102031.41;;;6.98;70.93
55550;BME280;41397;49.972;18.944;2023-12-28T06:01:14;102029.50;;;7.00;71.20
55550;BME280;41397;49.972;18.944;2023-12-28T06:04:16;102014.88;;;7.02;71.66
55550;BME280;41397;49.972;18.944;2023-12-28T06:07:20;102006.57;;;7.05;71.77
55550;BME280;41397;49.972;18.944;2023-12-28T06:10:21;102003.70;;;7.08;71.84
55550;BME280;41397;49.972;18.944;2023-12-28T06:13:25;102008.11;;;7.11;71.93
55550;BME280;41397;49.972;18.944;2023-12-28T06:16:27;102009.66;;;7.17;71.86
55550;BME280;41397;49.972;18.944;2023-12-28T06:19:28;102008.63;;;7.19;71.57
55550;BME280;41397;49.972;18.944;2023-12-28T06:22:29;102021.20;;;7.22;71.54
55550;BME280;41397;49.972;18.944;2023-12-28T06:25:30;102023.77;;;7.25;71.40
55550;BME280;41397;49.972;18.944;2023-12-28T06:28:32;102004.72;;;7.25;71.85
55550;BME280;41397;49.972;18.944;2023-12-28T06:31:37;102020.98;;;7.26;71.54
55550;BME280;41397;49.972;18.944;2023-12-28T06:34:39;102008.11;;;7.30;71.30
55550;BME280;41397;49.972;18.944;2023-12-28T06:37:42;102009.95;;;7.29;71.49
55550;BME280;41397;49.972;18.944;2023-12-28T06:40:44;102016.27;;;7.30;71.40
55550;BME280;41397;49.972;18.944;2023-12-28T06:43:45;102037.38;;;7.25;71.75
55550;BME280;41397;49.972;18.944;2023-12-28T06:46:46;102031.94;;;7.25;72.45
55550;BME280;41397;49.972;18.944;2023-12-28T06:49:47;102043.69;;;7.25;72.55
55550;BME280;41397;49.972;18.944;2023-12-28T06:52:48;102038.86;;;7.32;72.48
55550;BME280;41397;49.972;18.944;2023-12-28T06:55:52;102039.59;;;7.36;72.31
55550;BME280;41397;49.972;18.944;2023-12-28T06:58:53;102033.05;;;7.40;72.38
55550;BME280;41397;49.972;18.944;2023-12-28T07:01:55;102030.17;;;7.43;72.10
55550;BME280;41397;49.972;18.944;2023-12-28T07:04:56;102023.76;;;7.44;72.42
55550;BME280;41397;49.972;18.944;2023-12-28T07:08:00;102022.73;;;7.46;72.09
55550;BME280;41397;49.972;18.944;2023-12-28T07:11:01;102031.49;;;7.53;72.04
55550;BME280;41397;49.972;18.944;2023-12-28T07:14:04;102028.68;;;7.54;71.86
55550;BME280;41397;49.972;18.944;2023-12-28T07:17:05;102030.38;;;7.57;72.00
55550;BME280;41397;49.972;18.944;2023-12-28T07:20:09;102032.77;;;7.63;71.76
55550;BME280;41397;49.972;18.944;2023-12-28T07:23:13;102020.32;;;7.76;71.61
55550;BME280;41397;49.972;18.944;2023-12-28T07:26:15;102018.73;;;7.90;71.49
55550;BME280;41397;49.972;18.944;2023-12-28T07:29:17;102014.49;;;8.01;71.44
55550;BME280;41397;49.972;18.944;2023-12-28T07:32:18;102006.52;;;8.16;71.36
55550;BME280;41397;49.972;18.944;2023-12-28T07:35:23;102007.37;;;8.34;71.37
55550;BME280;41397;49.972;18.944;2023-12-28T07:38:24;101995.59;;;8.51;71.22
55550;BME280;41397;49.972;18.944;2023-12-28T07:41:25;101991.00;;;8.69;70.92
55550;BME280;41397;49.972;18.944;2023-12-28T07:44:30;101980.13;;;8.84;70.69
55550;BME280;41397;49.972;18.944;2023-12-28T07:47:32;101977.43;;;9.00;69.67
55550;BME280;41397;49.972;18.944;2023-12-28T07:50:34;101988.62;;;9.11;69.13
55550;BME280;41397;49.972;18.944;2023-12-28T07:53:35;102007.44;;;9.16;68.59
55550;BME280;41397;49.972;18.944;2023-12-28T07:56:36;102015.38;;;9.21;68.64
55550;BME280;41397;49.972;18.944;2023-12-28T07:59:38;102019.00;;;9.37;68.26
55550;BME280;41397;49.972;18.944;2023-12-28T08:02:39;102011.31;;;9.44;68.02
55550;BME280;41397;49.972;18.944;2023-12-28T08:05:40;102007.09;;;9.54;67.74
55550;BME280;41397;49.972;18.944;2023-12-28T08:08:41;102002.25;;;9.59;67.92
55550;BME280;41397;49.972;18.944;2023-12-28T08:11:43;101999.88;;;9.69;67.62
55550;BME280;41397;49.972;18.944;2023-12-28T08:14:44;102001.08;;;9.79;67.44
55550;BME280;41397;49.972;18.944;2023-12-28T08:17:45;102008.63;;;9.90;67.14
55550;BME280;41397;49.972;18.944;2023-12-28T08:20:48;102014.06;;;10.06;67.25
55550;BME280;41397;49.972;18.944;2023-12-28T08:23:51;102010.23;;;10.24;66.64
55550;BME280;41397;49.972;18.944;2023-12-28T08:26:52;102002.76;;;10.42;66.47
55550;BME280;41397;49.972;18.944;2023-12-28T08:29:54;102004.36;;;10.60;66.04
55550;BME280;41397;49.972;18.944;2023-12-28T08:32:57;102008.97;;;10.74;65.82
55550;BME280;41397;49.972;18.944;2023-12-28T08:35:58;102010.53;;;10.93;65.29
55550;BME280;41397;49.972;18.944;2023-12-28T08:39:00;102007.79;;;11.07;64.92
55550;BME280;41397;49.972;18.944;2023-12-28T08:42:01;102019.71;;;11.20;63.97
55550;BME280;41397;49.972;18.944;2023-12-28T08:45:05;102018.23;;;11.29;64.01
55550;BME280;41397;49.972;18.944;2023-12-28T08:48:07;102022.13;;;11.39;63.96
55550;BME280;41397;49.972;18.944;2023-12-28T08:51:10;102027.69;;;11.52;63.98
55550;BME280;41397;49.972;18.944;2023-12-28T08:54:12;102032.55;;;11.61;63.02
55550;BME280;41397;49.972;18.944;2023-12-28T08:57:13;102036.44;;;11.71;63.21
55550;BME280;41397;49.972;18.944;2023-12-28T09:00:14;102038.34;;;11.84;62.96
55550;BME280;41397;49.972;18.944;2023-12-28T09:03:18;102041.48;;;11.92;62.24
55550;BME280;41397;49.972;18.944;2023-12-28T09:06:20;102045.49;;;12.01;62.67
55550;BME280;41397;49.972;18.944;2023-12-28T09:09:21;102047.14;;;12.03;61.97
55550;BME280;41397;49.972;18.944;2023-12-28T09:12:22;102040.95;;;11.99;61.56
55550;BME280;41397;49.972;18.944;2023-12-28T09:15:24;102039.66;;;12.05;61.85
55550;BME280;41397;49.972;18.944;2023-12-28T09:18:25;102039.57;;;12.07;61.40
55550;BME280;41397;49.972;18.944;2023-12-28T09:21:28;102043.10;;;12.09;61.89
55550;BME280;41397;49.972;18.944;2023-12-28T09:24:30;102044.41;;;12.16;61.80
55550;BME280;41397;49.972;18.944;2023-12-28T09:27:34;102039.41;;;12.23;61.84
55550;BME280;41397;49.972;18.944;2023-12-28T09:30:35;102035.36;;;12.28;61.44
55550;BME280;41397;49.972;18.944;2023-12-28T09:33:37;102030.44;;;12.33;61.61
55550;BME280;41397;49.972;18.944;2023-12-28T09:36:38;102020.68;;;12.42;61.77
55550;BME280;41397;49.972;18.944;2023-12-28T09:39:39;102040.23;;;12.50;61.53
55550;BME280;41397;49.972;18.944;2023-12-28T09:42:53;102032.88;;;12.51;61.06
55550;BME280;41397;49.972;18.944;2023-12-28T09:45:54;102028.25;;;12.51;61.04
55550;BME280;41397;49.972;18.944;2023-12-28T09:48:56;102048.55;;;12.49;61.41
55550;BME280;41397;49.972;18.944;2023-12-28T09:51:57;102051.43;;;12.47;60.92
55550;BME280;41397;49.972;18.944;2023-12-28T09:54:59;102045.38;;;12.42;60.95
55550;BME280;41397;49.972;18.944;2023-12-28T09:58:01;102034.48;;;12.40;61.17
55550;BME280;41397;49.972;18.944;2023-12-28T10:01:14;102033.62;;;12.40;61.32
55550;BME280;41397;49.972;18.944;2023-12-28T10:04:16;102026.16;;;12.42;61.23
55550;BME280;41397;49.972;18.944;2023-12-28T10:07:17;102027.13;;;12.41;61.10
55550;BME280;41397;49.972;18.944;2023-12-28T10:10:19;102032.09;;;12.36;61.28
55550;BME280;41397;49.972;18.944;2023-12-28T10:13:24;102020.12;;;12.37;61.53
55550;BME280;41397;49.972;18.944;2023-12-28T10:16:26;102020.12;;;12.37;61.53
55550;BME280;41397;49.972;18.944;2023-12-28T10:19:27;102025.30;;;12.41;61.44
55550;BME280;41397;49.972;18.944;2023-12-28T10:22:29;102022.55;;;12.41;61.37
55550;BME280;41397;49.972;18.944;2023-12-28T10:25:31;102019.25;;;12.36;61.68
55550;BME280;41397;49.972;18.944;2023-12-28T10:28:34;102025.30;;;12.41;61.57
55550;BME280;41397;49.972;18.944;2023-12-28T10:31:43;102018.81;;;12.42;61.83
55550;BME280;41397;49.972;18.944;2023-12-28T10:34:46;102033.30;;;12.44;61.65
55550;BME280;41397;49.972;18.944;2023-12-28T10:37:52;102039.89;;;12.42;61.79
55550;BME280;41397;49.972;18.944;2023-12-28T10:40:56;102029.23;;;12.37;61.76
55550;BME280;41397;49.972;18.944;2023-12-28T10:44:04;102023.08;;;12.47;61.68
55550;BME280;41397;49.972;18.944;2023-12-28T10:47:12;102018.71;;;12.44;61.44
55550;BME280;41397;49.972;18.944;2023-12-28T10:50:19;102016.16;;;12.41;61.59
55550;BME280;41397;49.972;18.944;2023-12-28T10:56:41;101994.77;;;12.46;62.00
55550;BME280;41397;49.972;18.944;2023-12-28T11:03:02;101995.54;;;12.48;62.13
55550;BME280;41397;49.972;18.944;2023-12-28T11:06:04;101977.21;;;12.49;62.30
55550;BME280;41397;49.972;18.944;2023-12-28T11:09:09;101993.68;;;12.49;62.55
55550;BME280;41397;49.972;18.944;2023-12-28T11:12:11;101973.59;;;12.48;62.41
55550;BME280;41397;49.972;18.944;2023-12-28T11:15:15;101979.31;;;12.45;62.41
55550;BME280;41397;49.972;18.944;2023-12-28T11:18:18;101975.79;;;12.43;62.44
55550;BME280;41397;49.972;18.944;2023-12-28T11:21:24;101984.67;;;12.47;65.53
55550;BME280;41397;49.972;18.944;2023-12-28T11:24:29;101970.76;;;12.50;65.19
55550;BME280;41397;49.972;18.944;2023-12-28T11:27:35;101974.93;;;12.55;64.83
55550;BME280;41397;49.972;18.944;2023-12-28T11:30:41;101974.81;;;12.57;64.78
55550;BME280;41397;49.972;18.944;2023-12-28T11:33:48;101955.37;;;12.60;64.54
55550;BME280;41397;49.972;18.944;2023-12-28T11:36:55;101938.58;;;12.64;65.06
55550;BME280;41397;49.972;18.944;2023-12-28T11:39:57;101931.99;;;12.67;63.77
55550;BME280;41397;49.972;18.944;2023-12-28T11:43:02;101936.39;;;12.70;63.47
55550;BME280;41397;49.972;18.944;2023-12-28T11:46:12;101932.63;;;12.71;64.29
55550;BME280;41397;49.972;18.944;2023-12-28T11:49:13;101917.81;;;12.73;64.82
55550;BME280;41397;49.972;18.944;2023-12-28T11:55:30;101904.64;;;12.78;63.10
55550;BME280;41397;49.972;18.944;2023-12-28T11:58:32;101899.05;;;12.80;63.47
55550;BME280;41397;49.972;18.944;2023-12-28T12:01:35;101895.75;;;12.75;63.10
55550;BME280;41397;49.972;18.944;2023-12-28T12:04:36;101906.52;;;12.78;62.70
55550;BME280;41397;49.972;18.944;2023-12-28T12:07:38;101916.95;;;12.73;63.61
55550;BME280;41397;49.972;18.944;2023-12-28T12:10:41;101904.00;;;12.75;62.79
55550;BME280;41397;49.972;18.944;2023-12-28T12:13:42;101896.52;;;12.77;62.68
55550;BME280;41397;49.972;18.944;2023-12-28T12:16:43;101898.91;;;12.81;62.48
55550;BME280;41397;49.972;18.944;2023-12-28T12:19:46;101899.69;;;12.83;62.61
55550;BME280;41397;49.972;18.944;2023-12-28T12:22:51;101895.61;;;12.89;63.05
55550;BME280;41397;49.972;18.944;2023-12-28T12:25:53;101898.66;;;12.97;62.49
55550;BME280;41397;49.972;18.944;2023-12-28T12:28:55;101893.38;;;13.07;62.24
55550;BME280;41397;49.972;18.944;2023-12-28T12:31:57;101895.66;;;13.13;61.23
55550;BME280;41397;49.972;18.944;2023-12-28T12:34:59;101886.84;;;13.21;61.46
55550;BME280;41397;49.972;18.944;2023-12-28T12:38:01;101887.27;;;13.27;61.63
55550;BME280;41397;49.972;18.944;2023-12-28T12:41:04;101879.46;;;13.34;60.89
55550;BME280;41397;49.972;18.944;2023-12-28T12:44:05;101880.97;;;13.38;60.58
55550;BME280;41397;49.972;18.944;2023-12-28T12:47:09;101887.23;;;13.40;60.35
55550;BME280;41397;49.972;18.944;2023-12-28T12:50:13;101885.36;;;13.41;59.75
55550;BME280;41397;49.972;18.944;2023-12-28T12:53:16;101893.49;;;13.42;59.50
55550;BME280;41397;49.972;18.944;2023-12-28T12:56:17;101892.06;;;13.37;59.11
55550;BME280;41397;49.972;18.944;2023-12-28T12:59:19;101890.32;;;13.36;59.14
55550;BME280;41397;49.972;18.944;2023-12-28T13:02:24;101889.69;;;13.32;58.79
55550;BME280;41397;49.972;18.944;2023-12-28T13:05:32;101879.67;;;13.31;58.80
55550;BME280;41397;49.972;18.944;2023-12-28T13:08:33;101875.94;;;13.32;58.61
55550;BME280;41397;49.972;18.944;2023-12-28T13:11:35;101863.19;;;13.31;58.14
55550;BME280;41397;49.972;18.944;2023-12-28T13:14:36;101865.20;;;13.29;58.44
55550;BME280;41397;49.972;18.944;2023-12-28T13:17:40;101868.25;;;13.24;58.72
55550;BME280;41397;49.972;18.944;2023-12-28T13:20:41;101869.12;;;13.25;58.59
55550;BME280;41397;49.972;18.944;2023-12-28T13:23:45;101871.00;;;13.24;58.82
55550;BME280;41397;49.972;18.944;2023-12-28T13:26:46;101874.09;;;13.20;58.69
55550;BME280;41397;49.972;18.944;2023-12-28T13:29:48;101872.45;;;13.17;59.21
55550;BME280;41397;49.972;18.944;2023-12-28T13:32:49;101882.70;;;13.15;59.25
55550;BME280;41397;49.972;18.944;2023-12-28T13:35:51;101887.29;;;13.15;59.46
55550;BME280;41397;49.972;18.944;2023-12-28T13:38:53;101896.75;;;13.10;59.18
55550;BME280;41397;49.972;18.944;2023-12-28T13:41:56;101903.59;;;13.05;58.77
55550;BME280;41397;49.972;18.944;2023-12-28T13:44:57;101902.82;;;13.03;58.07
55550;BME280;41397;49.972;18.944;2023-12-28T13:47:58;101903.15;;;12.98;57.17
55550;BME280;41397;49.972;18.944;2023-12-28T13:50:59;101891.43;;;12.96;56.86
55550;BME280;41397;49.972;18.944;2023-12-28T13:54:04;101878.91;;;12.92;55.95
55550;BME280;41397;49.972;18.944;2023-12-28T13:57:07;101888.24;;;12.89;55.88
55550;BME280;41397;49.972;18.944;2023-12-28T14:00:09;101902.44;;;12.83;55.69
55550;BME280;41397;49.972;18.944;2023-12-28T14:03:12;101901.02;;;12.78;55.43
55550;BME280;41397;49.972;18.944;2023-12-28T14:06:22;101900.16;;;12.77;55.98
55550;BME280;41397;49.972;18.944;2023-12-28T14:09:20;101894.99;;;12.73;55.88
55550;BME280;41397;49.972;18.944;2023-12-28T14:12:23;101907.38;;;12.65;55.67
55550;BME280;41397;49.972;18.944;2023-12-28T14:15:24;101906.20;;;12.57;55.85
55550;BME280;41397;49.972;18.944;2023-12-28T14:18:26;101917.40;;;12.54;55.67
55550;BME280;41397;49.972;18.944;2023-12-28T14:21:27;101904.90;;;12.50;55.62
55550;BME280;41397;49.972;18.944;2023-12-28T14:24:29;101906.09;;;12.46;55.69
55550;BME280;41397;49.972;18.944;2023-12-28T14:27:30;101895.35;;;12.42;55.77
55550;BME280;41397;49.972;18.944;2023-12-28T14:30:32;101897.32;;;12.40;56.17
55550;BME280;41397;49.972;18.944;2023-12-28T14:33:34;101898.32;;;12.39;56.06
55550;BME280;41397;49.972;18.944;2023-12-28T14:36:36;101906.65;;;12.38;56.44
55550;BME280;41397;49.972;18.944;2023-12-28T14:39:41;101915.97;;;12.35;56.67
55550;BME280;41397;49.972;18.944;2023-12-28T14:42:43;101923.78;;;12.29;56.77
55550;BME280;41397;49.972;18.944;2023-12-28T14:45:44;101929.57;;;12.24;57.34
55550;BME280;41397;49.972;18.944;2023-12-28T14:48:48;101925.87;;;12.25;57.74
55550;BME280;41397;49.972;18.944;2023-12-28T14:51:49;101923.87;;;12.27;57.97
55550;BME280;41397;49.972;18.944;2023-12-28T14:54:50;101917.51;;;12.27;58.20
55550;BME280;41397;49.972;18.944;2023-12-28T14:57:51;101908.63;;;12.23;58.60
55550;BME280;41397;49.972;18.944;2023-12-28T15:00:53;101909.50;;;12.24;58.73
55550;BME280;41397;49.972;18.944;2023-12-28T15:03:55;101906.85;;;12.22;58.97
55550;BME280;41397;49.972;18.944;2023-12-28T15:06:56;101909.73;;;12.20;59.24
55550;BME280;41397;49.972;18.944;2023-12-28T15:09:58;101909.95;;;12.17;59.61
55550;BME280;41397;49.972;18.944;2023-12-28T15:13:00;101920.14;;;12.15;60.02
55550;BME280;41397;49.972;18.944;2023-12-28T15:16:01;101919.70;;;12.09;60.38
55550;BME280;41397;49.972;18.944;2023-12-28T15:19:04;101922.32;;;12.10;60.13
55550;BME280;41397;49.972;18.944;2023-12-28T15:22:06;101922.53;;;12.07;60.42
55550;BME280;41397;49.972;18.944;2023-12-28T15:25:07;101923.41;;;12.08;60.52
55550;BME280;41397;49.972;18.944;2023-12-28T15:28:09;101916.28;;;12.05;60.43
55550;BME280;41397;49.972;18.944;2023-12-28T15:31:10;101930.20;;;12.02;61.08
55550;BME280;41397;49.972;18.944;2023-12-28T15:34:11;101939.43;;;12.01;61.52
55550;BME280;41397;49.972;18.944;2023-12-28T15:37:12;101936.78;;;11.99;62.40
55550;BME280;41397;49.972;18.944;2023-12-28T15:40:13;101940.53;;;11.98;62.78
55550;BME280;41397;49.972;18.944;2023-12-28T15:43:15;101938.86;;;11.96;62.99
55550;BME280;41397;49.972;18.944;2023-12-28T15:46:18;101939.08;;;11.93;63.14
55550;BME280;41397;49.972;18.944;2023-12-28T15:49:20;101933.91;;;11.88;63.26
55550;BME280;41397;49.972;18.944;2023-12-28T15:52:21;101919.20;;;11.89;63.14
55550;BME280;41397;49.972;18.944;2023-12-28T15:55:23;101923.07;;;11.87;63.20
55550;BME280;41397;49.972;18.944;2023-12-28T15:58:24;101919.52;;;11.85;63.36
55550;BME280;41397;49.972;18.944;2023-12-28T16:01:26;101918.73;;;11.83;63.24